createdAt,value
2018-12-06T00:01:51.486Z,18.17
2018-12-06T00:04:20.210Z,20.37
2018-12-06T00:06:48.667Z,19.50
2018-12-06T00:09:17.179Z,19.73
2018-12-06T00:11:45.761Z,19.60
2018-12-06T00:14:15.128Z,20.70
2018-12-06T00:16:54.363Z,20.47
2018-12-06T00:19:23.121Z,21.83
2018-12-06T00:21:51.598Z,21.33
2018-12-06T00:24:21.143Z,24.67
2018-12-06T00:26:49.649Z,23.97
2018-12-06T00:29:19.606Z,24.67
2018-12-06T00:34:31.119Z,24.40
2018-12-06T00:36:59.883Z,23.77
2018-12-06T00:39:30.273Z,25.97
2018-12-06T00:41:58.636Z,24.77
2018-12-06T00:44:28.248Z,26.90
2018-12-06T00:46:57.448Z,26.40
2018-12-06T00:49:26.478Z,25.30
2018-12-06T00:51:55.694Z,25.00
2018-12-06T00:54:24.153Z,25.43
2018-12-06T00:56:52.725Z,25.00
2018-12-06T00:59:24.026Z,27.33
2018-12-06T01:01:53.411Z,26.10
2018-12-06T01:04:22.171Z,24.87
2018-12-06T01:06:51.063Z,26.70
2018-12-06T01:09:20.317Z,26.80
2018-12-06T01:11:48.770Z,26.90
2018-12-06T01:14:17.384Z,28.40
2018-12-06T01:16:45.762Z,29.57
2018-12-06T01:19:14.901Z,28.13
2018-12-06T01:21:43.504Z,27.67
2018-12-06T01:24:29.853Z,29.40
2018-12-06T01:26:58.565Z,30.23
2018-12-06T01:29:27.116Z,29.50
2018-12-06T01:31:56.262Z,29.63
2018-12-06T01:34:25.839Z,30.60
2018-12-06T01:36:54.509Z,30.43
2018-12-06T01:39:23.734Z,31.80
2018-12-06T01:41:52.221Z,32.80
2018-12-06T01:44:21.334Z,32.67
2018-12-06T01:46:50.631Z,32.20
2018-12-06T01:49:19.128Z,31.80
2018-12-06T01:51:47.655Z,34.43
2018-12-06T01:54:16.496Z,35.07
2018-12-06T01:56:45.157Z,34.63
2018-12-06T01:59:14.858Z,36.10
2018-12-06T02:01:43.526Z,36.47
2018-12-06T02:04:12.754Z,38.30
2018-12-06T02:06:41.305Z,39.90
2018-12-06T02:09:10.437Z,38.50
2018-12-06T02:11:41.258Z,36.90
2018-12-06T02:14:09.875Z,40.50
2018-12-06T02:16:39.895Z,37.47
2018-12-06T02:19:08.490Z,40.77
2018-12-06T02:21:37.791Z,39.47
2018-12-06T02:24:07.680Z,40.67
2018-12-06T02:26:36.816Z,41.00
2018-12-06T02:29:05.151Z,39.10
2018-12-06T02:31:35.356Z,39.87
2018-12-06T02:34:05.376Z,42.40
2018-12-06T02:36:33.986Z,41.63
2018-12-06T02:39:04.293Z,42.90
2018-12-06T02:41:34.359Z,44.17
2018-12-06T02:44:03.238Z,43.00
2018-12-06T02:49:15.713Z,44.43
2018-12-06T02:51:44.552Z,44.07
2018-12-06T02:54:14.690Z,44.10
2018-12-06T02:56:43.408Z,45.27
2018-12-06T02:59:13.223Z,45.83
2018-12-06T03:01:42.449Z,45.97
2018-12-06T03:06:55.843Z,46.37
2018-12-06T03:09:25.573Z,44.73
2018-12-06T03:11:55.539Z,44.03
2018-12-06T03:14:24.186Z,47.57
2018-12-06T03:16:53.465Z,46.20
2018-12-06T03:19:23.621Z,47.13
2018-12-06T03:21:52.348Z,46.27
2018-12-06T03:24:27.832Z,47.03
2018-12-06T03:26:56.518Z,45.03
2018-12-06T03:29:27.848Z,43.63
2018-12-06T03:32:03.953Z,44.33
2018-12-06T03:34:33.966Z,45.13
2018-12-06T03:37:04.686Z,43.00
2018-12-06T03:39:33.879Z,45.93
2018-12-06T03:44:44.600Z,45.60
2018-12-06T03:47:14.079Z,43.07
2018-12-06T03:49:43.601Z,44.17
2018-12-06T03:52:12.825Z,45.70
2018-12-06T03:54:45.031Z,43.50
2018-12-06T03:57:14.119Z,45.97
2018-12-06T03:59:45.892Z,47.40
2018-12-06T04:02:14.962Z,48.63
2018-12-06T04:04:47.114Z,48.33
2018-12-06T04:07:17.052Z,49.00
2018-12-06T04:09:47.054Z,46.80
2018-12-06T04:12:30.203Z,46.57
2018-12-06T04:15:00.447Z,46.70
2018-12-06T04:17:31.984Z,49.00
2018-12-06T04:20:01.238Z,49.03
2018-12-06T04:22:30.048Z,47.70
2018-12-06T04:24:59.253Z,49.33
2018-12-06T04:27:29.197Z,47.83
2018-12-06T04:29:58.399Z,47.73
2018-12-06T04:32:27.094Z,50.40
2018-12-06T04:34:57.112Z,49.80
2018-12-06T04:37:28.698Z,52.60
2018-12-06T04:39:57.394Z,53.37
2018-12-06T04:42:26.276Z,52.77
2018-12-06T04:44:56.222Z,53.10
2018-12-06T04:47:25.935Z,54.43
2018-12-06T04:49:55.962Z,53.27
2018-12-06T04:52:31.620Z,52.43
2018-12-06T04:55:00.917Z,54.33
2018-12-06T04:57:30.871Z,54.67
2018-12-06T05:00:01.103Z,53.93
2018-12-06T05:02:30.543Z,52.20
2018-12-06T05:05:00.904Z,52.97
2018-12-06T05:07:32.386Z,52.23
2018-12-06T05:10:02.227Z,53.33
2018-12-06T05:12:31.735Z,51.87
2018-12-06T05:15:01.118Z,51.50
2018-12-06T05:17:31.465Z,50.63
2018-12-06T05:20:01.388Z,53.10
2018-12-06T05:22:29.883Z,54.30
2018-12-06T05:24:58.336Z,52.97
2018-12-06T05:27:27.835Z,53.83
2018-12-06T05:29:56.755Z,51.00
2018-12-06T05:32:25.261Z,52.80
2018-12-06T05:34:54.947Z,50.43
2018-12-06T05:37:24.393Z,50.90
2018-12-06T05:39:53.076Z,49.00
2018-12-06T05:42:21.648Z,49.00
2018-12-06T05:44:51.285Z,48.87
2018-12-06T05:47:19.671Z,49.30
2018-12-06T05:49:48.638Z,47.20
2018-12-06T05:52:17.140Z,49.23
2018-12-06T05:54:45.646Z,47.40
2018-12-06T05:57:14.078Z,48.63
2018-12-06T05:59:43.206Z,49.90
2018-12-06T06:02:14.721Z,50.07
2018-12-06T06:04:44.227Z,49.60
2018-12-06T06:07:12.861Z,50.53
2018-12-06T06:09:41.391Z,48.63
2018-12-06T06:12:10.871Z,49.67
2018-12-06T06:14:39.486Z,49.07
2018-12-06T06:17:08.931Z,48.70
2018-12-06T06:19:37.259Z,51.17
2018-12-06T06:22:06.691Z,46.20
2018-12-06T06:24:35.178Z,48.03
2018-12-06T06:27:04.167Z,44.80
2018-12-06T06:29:32.800Z,46.37
2018-12-06T06:32:01.588Z,42.47
2018-12-06T06:34:30.077Z,44.30
2018-12-06T06:36:59.387Z,40.43
2018-12-06T06:39:27.921Z,39.63
2018-12-06T06:41:56.563Z,38.40
2018-12-06T06:44:25.146Z,39.67
2018-12-06T06:46:54.109Z,38.80
2018-12-06T06:49:22.680Z,38.50
2018-12-06T06:51:51.392Z,34.53
2018-12-06T06:54:20.061Z,37.60
2018-12-06T06:56:48.841Z,37.03
2018-12-06T06:59:17.466Z,35.77
2018-12-06T07:01:46.084Z,35.80
2018-12-06T07:04:15.494Z,36.30
2018-12-06T07:06:45.255Z,37.40
2018-12-06T07:09:14.063Z,34.93
2018-12-06T07:11:43.282Z,35.87
2018-12-06T07:16:50.626Z,38.30
2018-12-06T07:19:19.567Z,37.37
2018-12-06T07:21:48.059Z,36.57
2018-12-06T07:24:16.751Z,34.23
2018-12-06T07:26:45.426Z,35.77
2018-12-06T07:29:13.935Z,36.20
2018-12-06T07:31:42.955Z,36.63
2018-12-06T07:34:12.829Z,35.70
2018-12-06T07:36:41.364Z,34.73
2018-12-06T07:39:10.766Z,34.10
2018-12-06T07:41:40.739Z,32.10
2018-12-06T07:44:09.188Z,34.73
2018-12-06T07:46:37.820Z,33.30
2018-12-06T07:49:06.333Z,35.70
2018-12-06T07:51:34.865Z,31.80
2018-12-06T07:54:03.405Z,35.40
2018-12-06T07:56:31.839Z,37.35
2018-12-06T07:59:00.705Z,33.07
2018-12-06T08:01:30.506Z,30.60
2018-12-06T08:03:59.095Z,29.27
2018-12-06T08:09:09.454Z,29.30
2018-12-06T08:14:27.451Z,27.53
2018-12-06T08:16:55.942Z,27.80
2018-12-06T08:19:25.100Z,27.07
2018-12-06T08:21:53.611Z,26.30
2018-12-06T08:24:22.048Z,27.67
2018-12-06T08:26:50.713Z,26.00
2018-12-06T08:29:24.134Z,26.60
2018-12-06T08:31:54.648Z,25.67
2018-12-06T08:34:23.789Z,24.97
2018-12-06T08:36:52.417Z,22.90
2018-12-06T08:39:22.885Z,24.97
2018-12-06T08:41:51.627Z,23.60
2018-12-06T08:44:22.069Z,24.03
2018-12-06T08:46:50.910Z,24.43
2018-12-06T08:49:19.538Z,23.30
2018-12-06T08:51:48.258Z,23.00
2018-12-06T08:54:17.604Z,23.13
2018-12-06T08:56:46.069Z,21.27
2018-12-06T08:59:14.646Z,21.47
2018-12-06T09:01:43.261Z,20.33
2018-12-06T09:04:11.875Z,22.23
2018-12-06T09:06:41.778Z,19.60
2018-12-06T09:09:10.891Z,21.70
2018-12-06T09:11:42.531Z,21.30
2018-12-06T09:14:11.031Z,21.90
2018-12-06T09:16:39.268Z,21.97
2018-12-06T09:19:07.666Z,24.50
2018-12-06T09:21:36.148Z,21.40
2018-12-06T09:24:04.624Z,22.67
2018-12-06T09:26:33.598Z,23.10
2018-12-06T09:29:03.356Z,21.90
2018-12-06T09:31:32.377Z,21.67
2018-12-06T09:34:05.750Z,22.03
2018-12-06T09:36:37.207Z,23.17
2018-12-06T09:39:10.620Z,22.30
2018-12-06T09:41:39.393Z,21.03
2018-12-06T09:44:16.097Z,22.53
2018-12-06T09:46:44.480Z,23.33
2018-12-06T09:49:12.846Z,23.10
2018-12-06T09:54:34.081Z,22.87
2018-12-06T09:57:14.416Z,23.73
2018-12-06T09:59:44.800Z,21.47
2018-12-06T10:02:13.363Z,23.70
2018-12-06T10:04:42.179Z,24.73
2018-12-06T10:07:12.143Z,25.30
2018-12-06T10:12:26.995Z,24.80
2018-12-06T10:14:56.115Z,24.60
2018-12-06T10:17:30.553Z,25.90
2018-12-06T10:22:50.829Z,25.43
2018-12-06T10:25:19.376Z,28.03
2018-12-06T10:27:48.658Z,27.80
2018-12-06T10:30:17.888Z,28.20
2018-12-06T10:32:48.703Z,27.47
2018-12-06T10:35:19.308Z,28.80
2018-12-06T10:37:48.571Z,27.60
2018-12-06T10:40:17.874Z,30.40
2018-12-06T10:42:46.415Z,28.87
2018-12-06T10:45:14.835Z,26.07
2018-12-06T10:47:44.174Z,27.70
2018-12-06T10:50:12.565Z,26.93
2018-12-06T10:55:20.758Z,25.47
2018-12-06T10:57:49.959Z,25.30
2018-12-06T11:00:24.738Z,25.93
2018-12-06T11:02:58.061Z,24.40
2018-12-06T11:05:28.162Z,24.57
2018-12-06T11:07:56.811Z,24.20
2018-12-06T11:10:25.318Z,20.40
2018-12-06T11:12:53.948Z,18.97
2018-12-06T11:15:24.003Z,20.17
2018-12-06T11:17:52.762Z,19.20
2018-12-06T11:20:35.624Z,18.70
2018-12-06T11:23:05.243Z,16.73
2018-12-06T11:25:33.795Z,14.57
2018-12-06T11:28:03.466Z,16.60
2018-12-06T11:30:33.407Z,15.03
2018-12-06T11:33:02.023Z,14.50
2018-12-06T11:35:30.778Z,14.33
2018-12-06T11:37:59.348Z,13.17
2018-12-06T11:40:31.422Z,14.40
2018-12-06T11:42:59.834Z,14.30
2018-12-06T11:45:28.275Z,14.77
2018-12-06T11:47:56.758Z,13.67
2018-12-06T11:50:26.361Z,13.27
2018-12-06T11:52:55.757Z,14.93
2018-12-06T11:55:24.416Z,14.13
2018-12-06T11:57:52.976Z,13.23
2018-12-06T12:00:21.530Z,14.77
2018-12-06T12:02:50.378Z,14.60
2018-12-06T12:05:18.804Z,13.60
2018-12-06T12:07:48.339Z,12.90
2018-12-06T12:10:18.224Z,13.20
2018-12-06T12:15:25.825Z,13.90
2018-12-06T12:17:54.227Z,14.70
2018-12-06T12:20:22.520Z,14.33
2018-12-06T12:22:51.410Z,16.30
2018-12-06T12:25:19.929Z,14.90
2018-12-06T12:27:48.502Z,18.57
2018-12-06T12:30:16.993Z,17.80
2018-12-06T12:32:45.333Z,17.90
2018-12-06T12:35:13.823Z,17.20
2018-12-06T12:37:42.478Z,18.80
2018-12-06T12:40:12.130Z,17.43
2018-12-06T12:42:40.668Z,19.03
2018-12-06T12:45:10.240Z,18.23
2018-12-06T12:47:38.710Z,16.73
2018-12-06T12:50:08.916Z,17.47
2018-12-06T12:52:38.062Z,16.40
2018-12-06T12:55:06.702Z,14.83
2018-12-06T12:57:36.043Z,13.87
2018-12-06T13:00:06.165Z,13.43
2018-12-06T13:05:18.271Z,10.80
2018-12-06T13:07:46.942Z,10.70
2018-12-06T13:10:16.218Z,9.87
2018-12-06T13:12:45.900Z,9.47
2018-12-06T13:15:14.746Z,8.97
2018-12-06T13:17:43.361Z,9.33
2018-12-06T13:20:12.183Z,8.47
2018-12-06T13:22:41.516Z,9.40
2018-12-06T13:25:11.035Z,10.03
2018-12-06T13:27:42.692Z,10.10
2018-12-06T13:30:12.537Z,10.10
2018-12-06T13:32:41.292Z,9.30
2018-12-06T13:35:11.000Z,11.40
2018-12-06T13:37:41.535Z,20.70
2018-12-06T13:40:11.107Z,26.30
2018-12-06T13:42:39.667Z,14.07
2018-12-06T13:45:08.747Z,13.90
2018-12-06T13:47:39.177Z,13.00
2018-12-06T13:50:09.754Z,12.50
2018-12-06T13:52:39.149Z,17.93
2018-12-06T13:55:08.447Z,13.20
2018-12-06T13:57:42.361Z,13.67
2018-12-06T14:00:11.011Z,13.60
2018-12-06T14:02:40.150Z,14.67
2018-12-06T14:05:10.766Z,13.73
2018-12-06T14:07:40.773Z,15.70
2018-12-06T14:10:11.407Z,17.97
2018-12-06T14:12:40.043Z,17.73
2018-12-06T14:15:08.821Z,17.00
2018-12-06T14:17:39.137Z,19.27
2018-12-06T14:20:09.794Z,19.43
2018-12-06T14:22:38.293Z,23.57
2018-12-06T14:25:07.548Z,21.97
2018-12-06T14:31:03.592Z,22.97
2018-12-06T14:33:44.276Z,21.43
2018-12-06T14:36:17.594Z,21.80
2018-12-06T14:38:50.840Z,21.97
2018-12-06T14:41:36.169Z,21.30
2018-12-06T14:44:05.582Z,21.90
2018-12-06T14:46:41.688Z,21.67
2018-12-06T14:52:33.316Z,35.07
2018-12-06T14:55:05.683Z,26.03
2018-12-06T14:57:46.418Z,25.53
2018-12-06T15:00:22.420Z,22.40
2018-12-06T15:02:55.901Z,21.80
2018-12-06T15:05:29.466Z,24.18
2018-12-06T15:08:04.376Z,21.10
2018-12-06T15:10:35.540Z,21.93
2018-12-06T15:13:12.018Z,19.50
2018-12-06T15:18:40.557Z,23.30
2018-12-06T15:21:13.382Z,21.80
2018-12-06T15:23:42.444Z,19.20
2018-12-06T15:26:14.194Z,18.27
2018-12-06T15:28:47.121Z,18.90
2018-12-06T15:31:23.207Z,17.60
2018-12-06T15:33:55.753Z,17.90
2018-12-06T15:36:25.755Z,17.47
2018-12-06T15:42:05.586Z,16.07
2018-12-06T15:44:44.716Z,18.10
2018-12-06T15:47:13.472Z,17.57
2018-12-06T15:49:41.921Z,16.83
2018-12-06T15:52:10.174Z,17.90
2018-12-06T15:54:38.593Z,16.10
2018-12-06T15:57:07.018Z,16.60
2018-12-06T15:59:35.350Z,17.57
2018-12-06T16:02:04.391Z,17.03
2018-12-06T16:04:33.139Z,18.33
2018-12-06T16:07:02.620Z,18.07
2018-12-06T16:09:31.913Z,16.17
2018-12-06T16:12:00.466Z,17.33
2018-12-06T16:14:28.843Z,16.50
2018-12-06T16:16:59.589Z,15.67
2018-12-06T16:19:28.397Z,15.53
2018-12-06T16:21:56.847Z,15.40
2018-12-06T16:24:25.511Z,16.70
2018-12-06T16:26:53.969Z,14.97
2018-12-06T16:29:23.566Z,15.50
2018-12-06T16:31:52.242Z,16.20
2018-12-06T16:34:20.786Z,14.93
2018-12-06T16:36:49.186Z,14.60
2018-12-06T16:39:17.609Z,15.27
2018-12-06T16:41:46.954Z,14.00
2018-12-06T16:44:15.549Z,14.97
2018-12-06T16:46:44.087Z,14.20
2018-12-06T16:49:12.472Z,14.43
2018-12-06T16:51:42.391Z,14.67
2018-12-06T16:54:10.819Z,13.03
2018-12-06T16:56:39.237Z,12.67
2018-12-06T16:59:07.904Z,13.63
2018-12-06T17:01:36.541Z,13.50
2018-12-06T17:04:05.172Z,13.63
2018-12-06T17:06:33.860Z,14.70
2018-12-06T17:09:03.407Z,14.50
2018-12-06T17:11:31.826Z,13.90
2018-12-06T17:14:00.272Z,14.27
2018-12-06T17:16:28.590Z,13.10
2018-12-06T17:18:57.214Z,12.73
2018-12-06T17:21:26.095Z,13.33
2018-12-06T17:23:54.408Z,12.50
2018-12-06T17:26:22.708Z,12.93
2018-12-06T17:28:51.225Z,12.07
2018-12-06T17:31:20.897Z,11.70
2018-12-06T17:33:49.202Z,11.27
2018-12-06T17:36:18.492Z,11.50
2018-12-06T17:38:47.306Z,11.63
2018-12-06T17:41:16.836Z,11.40
2018-12-06T17:43:47.675Z,11.13
2018-12-06T17:46:17.220Z,10.80
2018-12-06T17:48:46.488Z,10.73
2018-12-06T17:51:15.288Z,10.90
2018-12-06T17:53:43.779Z,10.80
2018-12-06T17:56:12.039Z,11.37
2018-12-06T17:58:40.392Z,12.47
2018-12-06T18:01:09.229Z,12.43
2018-12-06T18:03:37.570Z,14.20
2018-12-06T18:06:07.098Z,13.60
2018-12-06T18:08:35.700Z,14.60
2018-12-06T18:11:04.356Z,13.53
2018-12-06T18:13:33.218Z,13.73
2018-12-06T18:18:41.886Z,13.50
2018-12-06T18:21:10.563Z,14.40
2018-12-06T18:23:39.422Z,13.57
2018-12-06T18:26:07.934Z,12.97
2018-12-06T18:28:36.311Z,14.00
2018-12-06T18:31:04.569Z,13.87
2018-12-06T18:33:32.952Z,14.27
2018-12-06T18:36:02.278Z,13.60
2018-12-06T18:38:30.724Z,13.57
2018-12-06T18:40:59.474Z,13.57
2018-12-06T18:43:28.325Z,15.53
2018-12-06T18:46:01.765Z,15.17
2018-12-06T18:48:30.504Z,13.93
2018-12-06T18:51:07.278Z,14.80
2018-12-06T18:53:38.241Z,15.07
2018-12-06T18:56:09.154Z,15.50
2018-12-06T18:58:38.275Z,16.73
2018-12-06T19:01:08.124Z,17.90
2018-12-06T19:03:36.868Z,18.00
2018-12-06T19:06:06.887Z,16.70
2018-12-06T19:08:35.990Z,15.50
2018-12-06T19:11:04.577Z,16.87
2018-12-06T19:13:33.876Z,16.40
2018-12-06T19:16:03.748Z,16.47
2018-12-06T19:18:32.711Z,16.77
2018-12-06T19:21:01.384Z,19.00
2018-12-06T19:23:33.212Z,17.93
2018-12-06T19:26:03.285Z,19.40
2018-12-06T19:28:32.956Z,18.47
2018-12-06T19:31:02.577Z,19.47
2018-12-06T19:33:31.599Z,20.03
2018-12-06T19:36:01.770Z,18.57
2018-12-06T19:38:45.899Z,19.20
2018-12-06T19:41:17.879Z,19.90
2018-12-06T19:43:49.237Z,21.10
2018-12-06T19:46:18.663Z,18.30
2018-12-06T19:48:49.641Z,17.80
2018-12-06T19:51:33.146Z,16.40
2018-12-06T19:54:04.224Z,14.60
2018-12-06T19:56:33.864Z,13.80
2018-12-06T19:59:02.461Z,12.90
2018-12-06T20:01:33.803Z,11.53
2018-12-06T20:04:02.821Z,10.17
2018-12-06T20:06:38.683Z,9.10
2018-12-06T20:09:10.296Z,9.20
2018-12-06T20:11:41.610Z,9.37
2018-12-06T20:14:10.740Z,8.30
2018-12-06T20:16:39.970Z,8.33
2018-12-06T20:19:08.720Z,8.90
2018-12-06T20:21:37.229Z,8.50
2018-12-06T20:24:05.994Z,8.53
2018-12-06T20:26:40.558Z,7.53
2018-12-06T20:29:09.189Z,8.60
2018-12-06T20:31:39.221Z,7.33
2018-12-06T20:34:08.147Z,8.07
2018-12-06T20:36:39.960Z,8.40
2018-12-06T20:39:09.121Z,8.43
2018-12-06T20:41:38.231Z,8.57
2018-12-06T20:44:10.587Z,8.90
2018-12-06T20:46:39.877Z,8.83
2018-12-06T20:49:18.578Z,9.23
2018-12-06T20:51:47.254Z,10.43
2018-12-06T20:54:16.438Z,10.67
2018-12-06T20:56:48.336Z,13.90
2018-12-06T20:59:17.083Z,14.37
2018-12-06T21:04:31.499Z,16.20
2018-12-06T21:07:00.958Z,15.37
2018-12-06T21:09:29.600Z,15.77
2018-12-06T21:11:58.419Z,16.10
2018-12-06T21:14:27.041Z,16.70
2018-12-06T21:16:58.499Z,15.87
2018-12-06T21:19:26.976Z,14.70
2018-12-06T21:21:58.600Z,15.57
2018-12-06T21:24:28.670Z,15.43
2018-12-06T21:26:57.955Z,17.07
2018-12-06T21:29:26.367Z,16.93
2018-12-06T21:31:54.931Z,15.17
2018-12-06T21:34:23.475Z,15.80
2018-12-06T21:36:52.032Z,17.13
2018-12-06T21:39:21.346Z,17.07
2018-12-06T21:41:50.918Z,18.93
2018-12-06T21:44:19.508Z,17.87
2018-12-06T21:46:47.927Z,17.50
2018-12-06T21:49:16.565Z,16.67
2018-12-06T21:51:46.770Z,17.33
2018-12-06T21:54:15.272Z,16.93
2018-12-06T21:56:44.022Z,17.90
2018-12-06T21:59:12.550Z,18.80
2018-12-06T22:01:41.239Z,18.53
2018-12-06T22:04:11.202Z,19.60
2018-12-06T22:06:39.749Z,18.13
2018-12-06T22:09:09.095Z,18.87
2018-12-06T22:11:38.226Z,18.47
2018-12-06T22:14:08.768Z,19.27
2018-12-06T22:16:37.311Z,20.80
2018-12-06T22:19:05.893Z,21.13
2018-12-06T22:21:35.855Z,21.50
2018-12-06T22:24:06.054Z,21.27
2018-12-06T22:26:34.612Z,20.77
2018-12-06T22:29:03.771Z,20.27
2018-12-06T22:31:32.440Z,20.57
2018-12-06T22:36:45.684Z,21.63
2018-12-06T22:39:15.192Z,21.57
2018-12-06T22:44:28.620Z,19.93
2018-12-06T22:46:58.317Z,21.30
2018-12-06T22:49:26.852Z,21.13
2018-12-06T22:51:57.465Z,21.20
2018-12-06T22:54:26.717Z,21.20
2018-12-06T22:56:55.356Z,20.03
2018-12-06T22:59:24.619Z,19.00
2018-12-06T23:01:53.956Z,19.37
2018-12-06T23:04:22.826Z,18.03
2018-12-06T23:06:52.460Z,17.23
2018-12-06T23:09:24.413Z,16.47
2018-12-06T23:11:53.758Z,16.93
2018-12-06T23:14:23.238Z,15.20
2018-12-06T23:19:32.465Z,16.40
2018-12-06T23:22:02.059Z,17.17
2018-12-06T23:24:30.830Z,17.60
2018-12-06T23:26:59.966Z,18.73
2018-12-06T23:29:29.377Z,19.43
2018-12-06T23:31:59.063Z,18.13
2018-12-06T23:34:30.375Z,18.83
2018-12-06T23:36:58.884Z,17.73
2018-12-06T23:39:28.907Z,17.60
2018-12-06T23:41:58.825Z,17.23
2018-12-06T23:44:27.810Z,17.30
2018-12-06T23:46:57.486Z,19.57
2018-12-06T23:49:26.011Z,19.03
2018-12-06T23:51:56.128Z,18.20
2018-12-06T23:54:24.718Z,20.50
2018-12-06T23:56:53.459Z,21.13
2018-12-06T23:59:22.810Z,21.17
